sensor_id;sensor_type;location;lat;lon;timestamp;temperature;humidity
28763;DHT22;15918;51.270;6.522;2023-07-29T00:02:06;22.80;73.80
28763;DHT22;15918;51.270;6.522;2023-07-29T00:04:32;22.80;73.70
28763;DHT22;15918;51.270;6.522;2023-07-29T00:06:57;22.80;73.70
28763;DHT22;15918;51.270;6.522;2023-07-29T00:09:23;22.80;73.60
28763;DHT22;15918;51.270;6.522;2023-07-29T00:11:50;22.80;73.80
28763;DHT22;15918;51.270;6.522;2023-07-29T00:14:15;22.80;73.80
28763;DHT22;15918;51.270;6.522;2023-07-29T00:16:41;22.80;73.90
28763;DHT22;15918;51.270;6.522;2023-07-29T00:19:08;22.80;73.80
28763;DHT22;15918;51.270;6.522;2023-07-29T00:21:33;22.80;73.80
28763;DHT22;15918;51.270;6.522;2023-07-29T00:23:59;22.70;73.70
28763;DHT22;15918;51.270;6.522;2023-07-29T00:26:26;22.80;73.80
28763;DHT22;15918;51.270;6.522;2023-07-29T00:28:57;22.80;73.90
28763;DHT22;15918;51.270;6.522;2023-07-29T00:31:23;22.70;73.80
28763;DHT22;15918;51.270;6.522;2023-07-29T00:33:48;22.80;73.90
28763;DHT22;15918;51.270;6.522;2023-07-29T00:36:15;22.70;73.60
28763;DHT22;15918;51.270;6.522;2023-07-29T00:38:40;22.70;73.60
28763;DHT22;15918;51.270;6.522;2023-07-29T00:41:07;22.70;73.60
28763;DHT22;15918;51.270;6.522;2023-07-29T00:43:33;22.70;73.80
28763;DHT22;15918;51.270;6.522;2023-07-29T00:46:00;22.70;73.80
28763;DHT22;15918;51.270;6.522;2023-07-29T00:48:26;22.70;73.90
28763;DHT22;15918;51.270;6.522;2023-07-29T00:50:51;22.70;73.80
28763;DHT22;15918;51.270;6.522;2023-07-29T00:53:17;22.70;73.90
28763;DHT22;15918;51.270;6.522;2023-07-29T00:55:43;22.70;73.90
28763;DHT22;15918;51.270;6.522;2023-07-29T00:58:10;22.70;74.00
28763;DHT22;15918;51.270;6.522;2023-07-29T01:00:36;22.70;74.10
28763;DHT22;15918;51.270;6.522;2023-07-29T01:03:02;22.70;74.10
28763;DHT22;15918;51.270;6.522;2023-07-29T01:05:32;22.70;74.10
28763;DHT22;15918;51.270;6.522;2023-07-29T01:08:28;22.70;74.00
28763;DHT22;15918;51.270;6.522;2023-07-29T01:13:49;22.60;74.10
28763;DHT22;15918;51.270;6.522;2023-07-29T01:16:27;22.60;74.20
28763;DHT22;15918;51.270;6.522;2023-07-29T01:18:55;22.60;74.20
28763;DHT22;15918;51.270;6.522;2023-07-29T01:21:21;22.60;73.80
28763;DHT22;15918;51.270;6.522;2023-07-29T01:23:47;22.60;73.90
28763;DHT22;15918;51.270;6.522;2023-07-29T01:26:13;22.70;74.00
28763;DHT22;15918;51.270;6.522;2023-07-29T01:28:39;22.60;74.00
28763;DHT22;15918;51.270;6.522;2023-07-29T01:31:12;22.70;74.00
28763;DHT22;15918;51.270;6.522;2023-07-29T01:33:56;22.60;74.20
28763;DHT22;15918;51.270;6.522;2023-07-29T01:36:27;22.60;74.10
28763;DHT22;15918;51.270;6.522;2023-07-29T01:38:54;22.60;74.30
28763;DHT22;15918;51.270;6.522;2023-07-29T01:41:22;22.60;74.30
28763;DHT22;15918;51.270;6.522;2023-07-29T01:43:48;22.70;74.50
28763;DHT22;15918;51.270;6.522;2023-07-29T01:46:15;22.60;74.40
28763;DHT22;15918;51.270;6.522;2023-07-29T01:48:41;22.60;74.40
28763;DHT22;15918;51.270;6.522;2023-07-29T01:51:07;22.60;74.40
28763;DHT22;15918;51.270;6.522;2023-07-29T01:53:33;22.60;74.50
28763;DHT22;15918;51.270;6.522;2023-07-29T01:55:58;22.60;74.50
28763;DHT22;15918;51.270;6.522;2023-07-29T01:58:24;22.60;74.50
28763;DHT22;15918;51.270;6.522;2023-07-29T02:00:50;22.60;74.40
28763;DHT22;15918;51.270;6.522;2023-07-29T02:03:16;22.60;74.40
28763;DHT22;15918;51.270;6.522;2023-07-29T02:05:41;22.60;74.30
28763;DHT22;15918;51.270;6.522;2023-07-29T02:08:09;22.60;74.40
28763;DHT22;15918;51.270;6.522;2023-07-29T02:10:35;22.60;74.50
28763;DHT22;15918;51.270;6.522;2023-07-29T02:13:00;22.60;74.50
28763;DHT22;15918;51.270;6.522;2023-07-29T02:15:26;22.60;74.40
28763;DHT22;15918;51.270;6.522;2023-07-29T02:17:51;22.60;74.50
28763;DHT22;15918;51.270;6.522;2023-07-29T02:20:17;22.60;74.50
28763;DHT22;15918;51.270;6.522;2023-07-29T02:22:43;22.50;74.30
28763;DHT22;15918;51.270;6.522;2023-07-29T02:25:08;22.60;74.30
28763;DHT22;15918;51.270;6.522;2023-07-29T02:27:35;22.50;74.40
28763;DHT22;15918;51.270;6.522;2023-07-29T02:30:01;22.60;74.40
28763;DHT22;15918;51.270;6.522;2023-07-29T02:32:26;22.50;74.30
28763;DHT22;15918;51.270;6.522;2023-07-29T02:34:52;22.60;74.50
28763;DHT22;15918;51.270;6.522;2023-07-29T02:37:18;22.50;74.10
28763;DHT22;15918;51.270;6.522;2023-07-29T02:39:43;22.50;74.30
28763;DHT22;15918;51.270;6.522;2023-07-29T02:42:09;22.50;74.40
28763;DHT22;15918;51.270;6.522;2023-07-29T02:44:34;22.60;74.60
28763;DHT22;15918;51.270;6.522;2023-07-29T02:47:00;22.50;74.60
28763;DHT22;15918;51.270;6.522;2023-07-29T02:49:25;22.50;74.70
28763;DHT22;15918;51.270;6.522;2023-07-29T02:51:51;22.50;74.80
28763;DHT22;15918;51.270;6.522;2023-07-29T02:54:16;22.50;74.90
28763;DHT22;15918;51.270;6.522;2023-07-29T02:56:42;22.50;74.90
28763;DHT22;15918;51.270;6.522;2023-07-29T02:59:08;22.50;75.10
28763;DHT22;15918;51.270;6.522;2023-07-29T03:01:33;22.50;75.10
28763;DHT22;15918;51.270;6.522;2023-07-29T03:03:59;22.40;75.10
28763;DHT22;15918;51.270;6.522;2023-07-29T03:06:24;22.50;75.10
28763;DHT22;15918;51.270;6.522;2023-07-29T03:08:50;22.40;75.90
28763;DHT22;15918;51.270;6.522;2023-07-29T03:11:16;22.40;75.20
28763;DHT22;15918;51.270;6.522;2023-07-29T03:13:42;22.40;75.30
28763;DHT22;15918;51.270;6.522;2023-07-29T03:18:35;22.40;75.40
28763;DHT22;15918;51.270;6.522;2023-07-29T03:21:01;22.40;75.50
28763;DHT22;15918;51.270;6.522;2023-07-29T03:23:28;22.40;75.40
28763;DHT22;15918;51.270;6.522;2023-07-29T03:25:57;22.40;75.40
28763;DHT22;15918;51.270;6.522;2023-07-29T03:28:33;22.40;75.40
28763;DHT22;15918;51.270;6.522;2023-07-29T03:30:59;22.40;75.30
28763;DHT22;15918;51.270;6.522;2023-07-29T03:33:25;22.40;75.50
28763;DHT22;15918;51.270;6.522;2023-07-29T03:35:52;22.40;75.40
28763;DHT22;15918;51.270;6.522;2023-07-29T03:38:18;22.40;75.50
28763;DHT22;15918;51.270;6.522;2023-07-29T03:40:43;22.40;75.50
28763;DHT22;15918;51.270;6.522;2023-07-29T03:43:09;22.40;75.40
28763;DHT22;15918;51.270;6.522;2023-07-29T03:45:36;22.40;75.40
28763;DHT22;15918;51.270;6.522;2023-07-29T03:48:02;22.30;75.40
28763;DHT22;15918;51.270;6.522;2023-07-29T03:50:29;22.40;75.50
28763;DHT22;15918;51.270;6.522;2023-07-29T03:52:55;22.40;75.30
28763;DHT22;15918;51.270;6.522;2023-07-29T03:55:20;22.40;75.20
28763;DHT22;15918;51.270;6.522;2023-07-29T03:57:46;22.30;75.20
28763;DHT22;15918;51.270;6.522;2023-07-29T04:00:12;22.30;75.20
28763;DHT22;15918;51.270;6.522;2023-07-29T04:02:38;22.40;75.10
28763;DHT22;15918;51.270;6.522;2023-07-29T04:05:04;22.30;75.10
28763;DHT22;15918;51.270;6.522;2023-07-29T04:07:31;22.30;75.00
28763;DHT22;15918;51.270;6.522;2023-07-29T04:09:56;22.30;75.00
28763;DHT22;15918;51.270;6.522;2023-07-29T04:12:23;22.40;74.90
28763;DHT22;15918;51.270;6.522;2023-07-29T04:14:49;22.30;74.90
28763;DHT22;15918;51.270;6.522;2023-07-29T04:17:14;22.30;74.90
28763;DHT22;15918;51.270;6.522;2023-07-29T04:19:40;22.30;74.90
28763;DHT22;15918;51.270;6.522;2023-07-29T04:22:06;22.40;74.80
28763;DHT22;15918;51.270;6.522;2023-07-29T04:24:31;22.30;74.80
28763;DHT22;15918;51.270;6.522;2023-07-29T04:26:57;22.30;74.80
28763;DHT22;15918;51.270;6.522;2023-07-29T04:29:22;22.30;74.80
28763;DHT22;15918;51.270;6.522;2023-07-29T04:31:49;22.30;74.80
28763;DHT22;15918;51.270;6.522;2023-07-29T04:34:15;22.30;74.80
28763;DHT22;15918;51.270;6.522;2023-07-29T04:36:40;22.30;74.70
28763;DHT22;15918;51.270;6.522;2023-07-29T04:39:06;22.30;74.70
28763;DHT22;15918;51.270;6.522;2023-07-29T04:41:31;22.20;74.60
28763;DHT22;15918;51.270;6.522;2023-07-29T04:43:57;22.20;74.60
28763;DHT22;15918;51.270;6.522;2023-07-29T04:46:23;22.30;74.70
28763;DHT22;15918;51.270;6.522;2023-07-29T04:48:48;22.20;74.60
28763;DHT22;15918;51.270;6.522;2023-07-29T04:51:14;22.20;74.60
28763;DHT22;15918;51.270;6.522;2023-07-29T04:53:39;22.20;74.70
28763;DHT22;15918;51.270;6.522;2023-07-29T04:56:05;22.30;74.80
28763;DHT22;15918;51.270;6.522;2023-07-29T04:58:31;22.20;74.70
28763;DHT22;15918;51.270;6.522;2023-07-29T05:01:00;22.20;74.70
28763;DHT22;15918;51.270;6.522;2023-07-29T05:03:25;22.20;74.70
28763;DHT22;15918;51.270;6.522;2023-07-29T05:05:51;22.30;74.80
28763;DHT22;15918;51.270;6.522;2023-07-29T05:08:19;22.30;74.70
28763;DHT22;15918;51.270;6.522;2023-07-29T05:10:44;22.20;74.60
28763;DHT22;15918;51.270;6.522;2023-07-29T05:13:13;22.20;74.60
28763;DHT22;15918;51.270;6.522;2023-07-29T05:15:39;22.20;74.60
28763;DHT22;15918;51.270;6.522;2023-07-29T05:18:04;22.20;74.50
28763;DHT22;15918;51.270;6.522;2023-07-29T05:20:30;22.20;75.20
28763;DHT22;15918;51.270;6.522;2023-07-29T05:22:55;22.20;74.50
28763;DHT22;15918;51.270;6.522;2023-07-29T05:25:21;22.20;74.60
28763;DHT22;15918;51.270;6.522;2023-07-29T05:27:47;22.20;74.60
28763;DHT22;15918;51.270;6.522;2023-07-29T05:30:12;22.20;74.60
28763;DHT22;15918;51.270;6.522;2023-07-29T05:32:38;22.20;74.60
28763;DHT22;15918;51.270;6.522;2023-07-29T05:35:03;22.20;74.60
28763;DHT22;15918;51.270;6.522;2023-07-29T05:37:29;22.20;74.50
28763;DHT22;15918;51.270;6.522;2023-07-29T05:39:55;22.10;74.50
28763;DHT22;15918;51.270;6.522;2023-07-29T05:42:20;22.20;74.50
28763;DHT22;15918;51.270;6.522;2023-07-29T05:44:46;22.10;74.40
28763;DHT22;15918;51.270;6.522;2023-07-29T05:47:11;22.10;74.30
28763;DHT22;15918;51.270;6.522;2023-07-29T05:49:37;22.10;74.30
28763;DHT22;15918;51.270;6.522;2023-07-29T05:52:03;22.10;74.30
28763;DHT22;15918;51.270;6.522;2023-07-29T05:54:28;22.10;74.20
28763;DHT22;15918;51.270;6.522;2023-07-29T05:56:54;22.10;74.20
28763;DHT22;15918;51.270;6.522;2023-07-29T05:59:19;22.20;74.10
28763;DHT22;15918;51.270;6.522;2023-07-29T06:01:45;22.10;74.10
28763;DHT22;15918;51.270;6.522;2023-07-29T06:04:10;22.10;74.00
28763;DHT22;15918;51.270;6.522;2023-07-29T06:06:36;22.10;74.00
28763;DHT22;15918;51.270;6.522;2023-07-29T06:09:02;22.10;73.90
28763;DHT22;15918;51.270;6.522;2023-07-29T06:11:27;22.10;73.80
28763;DHT22;15918;51.270;6.522;2023-07-29T06:13:53;22.00;73.80
28763;DHT22;15918;51.270;6.522;2023-07-29T06:16:18;22.00;73.80
28763;DHT22;15918;51.270;6.522;2023-07-29T06:18:44;22.00;73.60
28763;DHT22;15918;51.270;6.522;2023-07-29T06:21:09;22.00;73.60
28763;DHT22;15918;51.270;6.522;2023-07-29T06:23:37;22.00;73.60
28763;DHT22;15918;51.270;6.522;2023-07-29T06:26:03;22.10;73.40
28763;DHT22;15918;51.270;6.522;2023-07-29T06:28:29;22.00;73.30
28763;DHT22;15918;51.270;6.522;2023-07-29T06:30:54;22.00;73.00
28763;DHT22;15918;51.270;6.522;2023-07-29T06:33:20;22.00;73.00
28763;DHT22;15918;51.270;6.522;2023-07-29T06:35:45;22.00;73.00
28763;DHT22;15918;51.270;6.522;2023-07-29T06:38:11;22.00;72.90
28763;DHT22;15918;51.270;6.522;2023-07-29T06:40:36;22.00;73.00
28763;DHT22;15918;51.270;6.522;2023-07-29T06:43:02;22.00;72.90
28763;DHT22;15918;51.270;6.522;2023-07-29T06:45:28;22.00;72.90
28763;DHT22;15918;51.270;6.522;2023-07-29T06:47:53;22.00;72.80
28763;DHT22;15918;51.270;6.522;2023-07-29T06:50:19;22.10;72.90
28763;DHT22;15918;51.270;6.522;2023-07-29T06:52:45;22.10;72.80
28763;DHT22;15918;51.270;6.522;2023-07-29T06:55:10;22.10;72.70
28763;DHT22;15918;51.270;6.522;2023-07-29T06:57:36;22.10;72.60
28763;DHT22;15918;51.270;6.522;2023-07-29T07:00:03;22.20;72.70
28763;DHT22;15918;51.270;6.522;2023-07-29T07:02:28;22.20;72.90
28763;DHT22;15918;51.270;6.522;2023-07-29T07:04:54;22.20;73.60
28763;DHT22;15918;51.270;6.522;2023-07-29T07:07:20;22.20;72.80
28763;DHT22;15918;51.270;6.522;2023-07-29T07:09:45;22.30;72.90
28763;DHT22;15918;51.270;6.522;2023-07-29T07:12:11;22.30;72.70
28763;DHT22;15918;51.270;6.522;2023-07-29T07:14:37;22.30;72.60
28763;DHT22;15918;51.270;6.522;2023-07-29T07:17:03;22.30;72.60
28763;DHT22;15918;51.270;6.522;2023-07-29T07:19:28;22.40;72.60
28763;DHT22;15918;51.270;6.522;2023-07-29T07:21:54;22.40;73.10
28763;DHT22;15918;51.270;6.522;2023-07-29T07:24:19;22.40;72.20
28763;DHT22;15918;51.270;6.522;2023-07-29T07:26:45;22.50;71.80
28763;DHT22;15918;51.270;6.522;2023-07-29T07:29:11;22.50;71.70
28763;DHT22;15918;51.270;6.522;2023-07-29T07:31:36;22.50;71.60
28763;DHT22;15918;51.270;6.522;2023-07-29T07:34:02;22.60;71.70
28763;DHT22;15918;51.270;6.522;2023-07-29T07:36:28;22.60;71.50
28763;DHT22;15918;51.270;6.522;2023-07-29T07:38:54;22.60;71.50
28763;DHT22;15918;51.270;6.522;2023-07-29T07:41:20;22.60;71.50
28763;DHT22;15918;51.270;6.522;2023-07-29T07:43:45;22.70;71.50
28763;DHT22;15918;51.270;6.522;2023-07-29T07:46:11;22.70;71.30
28763;DHT22;15918;51.270;6.522;2023-07-29T07:48:37;22.70;71.00
28763;DHT22;15918;51.270;6.522;2023-07-29T07:51:13;22.70;71.00
28763;DHT22;15918;51.270;6.522;2023-07-29T07:53:38;22.70;70.60
28763;DHT22;15918;51.270;6.522;2023-07-29T07:56:05;22.70;70.40
28763;DHT22;15918;51.270;6.522;2023-07-29T07:58:31;22.80;70.20
28763;DHT22;15918;51.270;6.522;2023-07-29T08:01:07;22.80;70.30
28763;DHT22;15918;51.270;6.522;2023-07-29T08:03:34;22.80;70.20
28763;DHT22;15918;51.270;6.522;2023-07-29T08:06:00;22.80;70.30
28763;DHT22;15918;51.270;6.522;2023-07-29T08:08:26;22.90;70.40
28763;DHT22;15918;51.270;6.522;2023-07-29T08:10:53;22.90;70.20
28763;DHT22;15918;51.270;6.522;2023-07-29T08:13:23;22.90;70.00
28763;DHT22;15918;51.270;6.522;2023-07-29T08:15:50;22.90;69.70
28763;DHT22;15918;51.270;6.522;2023-07-29T08:18:16;23.00;69.90
28763;DHT22;15918;51.270;6.522;2023-07-29T08:20:54;23.00;70.00
28763;DHT22;15918;51.270;6.522;2023-07-29T08:23:21;23.00;69.80
28763;DHT22;15918;51.270;6.522;2023-07-29T08:25:58;23.00;69.80
28763;DHT22;15918;51.270;6.522;2023-07-29T08:28:38;23.00;69.40
28763;DHT22;15918;51.270;6.522;2023-07-29T08:31:04;23.00;69.40
28763;DHT22;15918;51.270;6.522;2023-07-29T08:33:31;23.10;69.60
28763;DHT22;15918;51.270;6.522;2023-07-29T08:35:57;23.10;69.60
28763;DHT22;15918;51.270;6.522;2023-07-29T08:38:22;23.10;69.50
28763;DHT22;15918;51.270;6.522;2023-07-29T08:41:01;23.20;69.40
28763;DHT22;15918;51.270;6.522;2023-07-29T08:43:29;23.20;69.00
28763;DHT22;15918;51.270;6.522;2023-07-29T08:45:57;23.20;69.20
28763;DHT22;15918;51.270;6.522;2023-07-29T08:48:32;23.20;69.00
28763;DHT22;15918;51.270;6.522;2023-07-29T08:51:00;23.30;68.70
28763;DHT22;15918;51.270;6.522;2023-07-29T08:53:26;23.20;68.70
28763;DHT22;15918;51.270;6.522;2023-07-29T08:55:52;23.30;68.60
28763;DHT22;15918;51.270;6.522;2023-07-29T08:58:19;23.30;68.50
28763;DHT22;15918;51.270;6.522;2023-07-29T09:00:45;23.30;68.30
28763;DHT22;15918;51.270;6.522;2023-07-29T09:03:11;23.40;68.20
28763;DHT22;15918;51.270;6.522;2023-07-29T09:05:37;23.40;67.80
28763;DHT22;15918;51.270;6.522;2023-07-29T09:08:04;23.40;67.80
28763;DHT22;15918;51.270;6.522;2023-07-29T09:10:29;23.40;67.70
28763;DHT22;15918;51.270;6.522;2023-07-29T09:12:55;23.40;67.60
28763;DHT22;15918;51.270;6.522;2023-07-29T09:15:31;23.40;67.60
28763;DHT22;15918;51.270;6.522;2023-07-29T09:17:57;23.40;67.40
28763;DHT22;15918;51.270;6.522;2023-07-29T09:20:27;23.40;67.40
28763;DHT22;15918;51.270;6.522;2023-07-29T09:22:58;23.40;67.20
28763;DHT22;15918;51.270;6.522;2023-07-29T09:25:26;23.40;66.90
28763;DHT22;15918;51.270;6.522;2023-07-29T09:27:52;23.40;67.10
28763;DHT22;15918;51.270;6.522;2023-07-29T09:30:18;23.40;67.20
28763;DHT22;15918;51.270;6.522;2023-07-29T09:32:44;23.40;67.00
28763;DHT22;15918;51.270;6.522;2023-07-29T09:35:13;23.40;67.10
28763;DHT22;15918;51.270;6.522;2023-07-29T09:37:39;23.40;67.20
28763;DHT22;15918;51.270;6.522;2023-07-29T09:40:06;23.40;67.00
28763;DHT22;15918;51.270;6.522;2023-07-29T09:42:32;23.40;67.10
28763;DHT22;15918;51.270;6.522;2023-07-29T09:44:58;23.40;67.10
28763;DHT22;15918;51.270;6.522;2023-07-29T09:47:25;23.40;67.10
28763;DHT22;15918;51.270;6.522;2023-07-29T09:49:51;23.50;67.30
28763;DHT22;15918;51.270;6.522;2023-07-29T09:52:18;23.60;67.30
28763;DHT22;15918;51.270;6.522;2023-07-29T09:54:44;23.50;67.10
28763;DHT22;15918;51.270;6.522;2023-07-29T09:57:15;23.50;66.80
28763;DHT22;15918;51.270;6.522;2023-07-29T09:59:41;23.50;66.90
28763;DHT22;15918;51.270;6.522;2023-07-29T10:02:15;23.60;66.70
28763;DHT22;15918;51.270;6.522;2023-07-29T10:04:42;23.60;66.30
28763;DHT22;15918;51.270;6.522;2023-07-29T10:07:09;23.60;66.50
28763;DHT22;15918;51.270;6.522;2023-07-29T10:09:36;23.60;66.50
28763;DHT22;15918;51.270;6.522;2023-07-29T10:12:06;23.60;66.50
28763;DHT22;15918;51.270;6.522;2023-07-29T10:14:32;23.60;66.60
28763;DHT22;15918;51.270;6.522;2023-07-29T10:16:58;23.70;66.80
28763;DHT22;15918;51.270;6.522;2023-07-29T10:19:25;23.70;66.60
28763;DHT22;15918;51.270;6.522;2023-07-29T10:21:56;23.70;66.10
28763;DHT22;15918;51.270;6.522;2023-07-29T10:24:25;23.70;66.10
28763;DHT22;15918;51.270;6.522;2023-07-29T10:26:57;23.70;66.00
28763;DHT22;15918;51.270;6.522;2023-07-29T10:29:24;23.70;66.10
28763;DHT22;15918;51.270;6.522;2023-07-29T10:31:54;23.70;65.90
28763;DHT22;15918;51.270;6.522;2023-07-29T10:34:23;23.70;65.90
28763;DHT22;15918;51.270;6.522;2023-07-29T10:36:50;23.80;66.10
28763;DHT22;15918;51.270;6.522;2023-07-29T10:39:16;23.80;66.10
28763;DHT22;15918;51.270;6.522;2023-07-29T10:42:08;23.80;66.00
28763;DHT22;15918;51.270;6.522;2023-07-29T10:47:24;23.90;66.10
28763;DHT22;15918;51.270;6.522;2023-07-29T10:49:58;23.90;65.80
28763;DHT22;15918;51.270;6.522;2023-07-29T10:52:29;23.90;65.90
28763;DHT22;15918;51.270;6.522;2023-07-29T10:54:55;23.90;65.40
28763;DHT22;15918;51.270;6.522;2023-07-29T10:57:34;23.90;65.10
28763;DHT22;15918;51.270;6.522;2023-07-29T11:00:00;23.90;64.80
28763;DHT22;15918;51.270;6.522;2023-07-29T11:02:31;23.90;64.80
28763;DHT22;15918;51.270;6.522;2023-07-29T11:04:57;23.90;64.20
28763;DHT22;15918;51.270;6.522;2023-07-29T11:07:24;23.90;64.20
28763;DHT22;15918;51.270;6.522;2023-07-29T11:10:03;23.90;64.20
28763;DHT22;15918;51.270;6.522;2023-07-29T11:12:47;24.00;64.00
28763;DHT22;15918;51.270;6.522;2023-07-29T11:15:15;23.90;64.00
28763;DHT22;15918;51.270;6.522;2023-07-29T11:17:42;23.90;64.20
28763;DHT22;15918;51.270;6.522;2023-07-29T11:20:09;24.00;64.50
28763;DHT22;15918;51.270;6.522;2023-07-29T11:22:36;24.00;64.50
28763;DHT22;15918;51.270;6.522;2023-07-29T11:25:02;24.00;64.40
28763;DHT22;15918;51.270;6.522;2023-07-29T11:27:28;24.00;64.30
28763;DHT22;15918;51.270;6.522;2023-07-29T11:30:03;24.00;64.30
28763;DHT22;15918;51.270;6.522;2023-07-29T11:32:30;24.10;64.00
28763;DHT22;15918;51.270;6.522;2023-07-29T11:34:57;24.10;64.00
28763;DHT22;15918;51.270;6.522;2023-07-29T11:37:26;24.10;63.80
28763;DHT22;15918;51.270;6.522;2023-07-29T11:39:51;24.10;63.60
28763;DHT22;15918;51.270;6.522;2023-07-29T11:42:17;24.10;63.30
28763;DHT22;15918;51.270;6.522;2023-07-29T11:44:43;24.10;63.40
28763;DHT22;15918;51.270;6.522;2023-07-29T11:47:12;24.10;63.40
28763;DHT22;15918;51.270;6.522;2023-07-29T11:49:39;24.10;63.40
28763;DHT22;15918;51.270;6.522;2023-07-29T11:52:09;24.10;63.60
28763;DHT22;15918;51.270;6.522;2023-07-29T11:54:39;24.10;63.70
28763;DHT22;15918;51.270;6.522;2023-07-29T11:57:08;24.20;64.20
28763;DHT22;15918;51.270;6.522;2023-07-29T11:59:35;24.10;63.90
28763;DHT22;15918;51.270;6.522;2023-07-29T12:02:05;24.20;65.00
28763;DHT22;15918;51.270;6.522;2023-07-29T12:04:31;24.20;64.30
28763;DHT22;15918;51.270;6.522;2023-07-29T12:06:57;24.20;64.40
28763;DHT22;15918;51.270;6.522;2023-07-29T12:09:23;24.20;64.30
28763;DHT22;15918;51.270;6.522;2023-07-29T12:11:49;24.20;64.30
28763;DHT22;15918;51.270;6.522;2023-07-29T12:14:16;24.30;64.30
28763;DHT22;15918;51.270;6.522;2023-07-29T12:16:43;24.30;64.50
28763;DHT22;15918;51.270;6.522;2023-07-29T12:19:11;24.30;64.60
28763;DHT22;15918;51.270;6.522;2023-07-29T12:21:37;24.30;64.60
28763;DHT22;15918;51.270;6.522;2023-07-29T12:24:03;24.30;64.60
28763;DHT22;15918;51.270;6.522;2023-07-29T12:26:32;24.40;64.70
28763;DHT22;15918;51.270;6.522;2023-07-29T12:28:57;24.40;64.50
28763;DHT22;15918;51.270;6.522;2023-07-29T12:31:31;24.40;64.60
28763;DHT22;15918;51.270;6.522;2023-07-29T12:33:57;24.40;64.50
28763;DHT22;15918;51.270;6.522;2023-07-29T12:36:39;24.40;64.60
28763;DHT22;15918;51.270;6.522;2023-07-29T12:39:05;24.40;64.40
28763;DHT22;15918;51.270;6.522;2023-07-29T12:41:30;24.50;64.10
28763;DHT22;15918;51.270;6.522;2023-07-29T12:43:56;24.50;64.10
28763;DHT22;15918;51.270;6.522;2023-07-29T12:46:22;24.50;63.80
28763;DHT22;15918;51.270;6.522;2023-07-29T12:48:47;24.50;63.70
28763;DHT22;15918;51.270;6.522;2023-07-29T12:51:13;24.50;63.50
28763;DHT22;15918;51.270;6.522;2023-07-29T12:53:39;24.50;63.80
28763;DHT22;15918;51.270;6.522;2023-07-29T12:56:06;24.50;63.80
28763;DHT22;15918;51.270;6.522;2023-07-29T12:58:31;24.60;63.70
28763;DHT22;15918;51.270;6.522;2023-07-29T13:00:57;24.60;63.70
28763;DHT22;15918;51.270;6.522;2023-07-29T13:03:22;24.60;63.40
28763;DHT22;15918;51.270;6.522;2023-07-29T13:05:48;24.60;63.20
28763;DHT22;15918;51.270;6.522;2023-07-29T13:08:13;24.60;63.20
28763;DHT22;15918;51.270;6.522;2023-07-29T13:10:39;24.60;63.20
28763;DHT22;15918;51.270;6.522;2023-07-29T13:13:05;24.60;63.00
28763;DHT22;15918;51.270;6.522;2023-07-29T13:15:30;24.60;63.10
28763;DHT22;15918;51.270;6.522;2023-07-29T13:17:56;24.60;63.10
28763;DHT22;15918;51.270;6.522;2023-07-29T13:20:21;24.60;63.10
28763;DHT22;15918;51.270;6.522;2023-07-29T13:22:47;24.60;64.00
28763;DHT22;15918;51.270;6.522;2023-07-29T13:25:12;24.60;63.10
28763;DHT22;15918;51.270;6.522;2023-07-29T13:27:38;24.60;62.90
28763;DHT22;15918;51.270;6.522;2023-07-29T13:30:04;24.60;63.20
28763;DHT22;15918;51.270;6.522;2023-07-29T13:32:30;24.60;63.40
28763;DHT22;15918;51.270;6.522;2023-07-29T13:34:56;24.60;63.80
28763;DHT22;15918;51.270;6.522;2023-07-29T13:37:21;24.60;63.90
28763;DHT22;15918;51.270;6.522;2023-07-29T13:39:47;24.60;64.10
28763;DHT22;15918;51.270;6.522;2023-07-29T13:42:12;24.60;64.40
28763;DHT22;15918;51.270;6.522;2023-07-29T13:44:38;24.50;64.60
28763;DHT22;15918;51.270;6.522;2023-07-29T13:47:04;24.50;64.80
28763;DHT22;15918;51.270;6.522;2023-07-29T13:49:29;24.50;64.90
28763;DHT22;15918;51.270;6.522;2023-07-29T13:51:55;24.50;65.10
28763;DHT22;15918;51.270;6.522;2023-07-29T13:54:20;24.50;65.10
28763;DHT22;15918;51.270;6.522;2023-07-29T13:56:47;24.50;65.20
28763;DHT22;15918;51.270;6.522;2023-07-29T13:59:12;24.50;65.40
28763;DHT22;15918;51.270;6.522;2023-07-29T14:01:38;24.40;65.40
28763;DHT22;15918;51.270;6.522;2023-07-29T14:04:03;24.50;65.50
28763;DHT22;15918;51.270;6.522;2023-07-29T14:06:29;24.40;65.40
28763;DHT22;15918;51.270;6.522;2023-07-29T14:08:55;24.40;65.40
28763;DHT22;15918;51.270;6.522;2023-07-29T14:11:20;24.40;65.40
28763;DHT22;15918;51.270;6.522;2023-07-29T14:13:46;24.40;65.30
28763;DHT22;15918;51.270;6.522;2023-07-29T14:16:11;24.40;65.70
28763;DHT22;15918;51.270;6.522;2023-07-29T14:18:37;24.40;64.70
28763;DHT22;15918;51.270;6.522;2023-07-29T14:21:03;24.40;64.60
28763;DHT22;15918;51.270;6.522;2023-07-29T14:23:28;24.40;64.70
28763;DHT22;15918;51.270;6.522;2023-07-29T14:25:55;24.40;65.00
28763;DHT22;15918;51.270;6.522;2023-07-29T14:28:21;24.40;65.10
28763;DHT22;15918;51.270;6.522;2023-07-29T14:30:46;24.40;65.10
28763;DHT22;15918;51.270;6.522;2023-07-29T14:33:12;24.40;65.20
28763;DHT22;15918;51.270;6.522;2023-07-29T14:35:38;24.40;65.20
28763;DHT22;15918;51.270;6.522;2023-07-29T14:38:04;24.40;65.10
28763;DHT22;15918;51.270;6.522;2023-07-29T14:40:29;24.40;65.40
28763;DHT22;15918;51.270;6.522;2023-07-29T14:42:55;24.30;65.50
28763;DHT22;15918;51.270;6.522;2023-07-29T14:45:21;24.30;65.80
28763;DHT22;15918;51.270;6.522;2023-07-29T14:47:46;24.30;65.90
28763;DHT22;15918;51.270;6.522;2023-07-29T14:50:12;24.30;66.20
28763;DHT22;15918;51.270;6.522;2023-07-29T14:52:37;24.30;66.40
28763;DHT22;15918;51.270;6.522;2023-07-29T14:55:03;24.30;66.40
28763;DHT22;15918;51.270;6.522;2023-07-29T14:57:29;24.20;66.50
28763;DHT22;15918;51.270;6.522;2023-07-29T14:59:54;24.20;66.70
28763;DHT22;15918;51.270;6.522;2023-07-29T15:02:20;24.20;66.80
28763;DHT22;15918;51.270;6.522;2023-07-29T15:04:47;24.20;66.90
28763;DHT22;15918;51.270;6.522;2023-07-29T15:07:13;24.20;66.90
28763;DHT22;15918;51.270;6.522;2023-07-29T15:09:39;24.30;67.00
28763;DHT22;15918;51.270;6.522;2023-07-29T15:12:04;24.30;66.80
28763;DHT22;15918;51.270;6.522;2023-07-29T15:14:30;24.30;66.80
28763;DHT22;15918;51.270;6.522;2023-07-29T15:16:56;24.30;66.80
28763;DHT22;15918;51.270;6.522;2023-07-29T15:19:21;24.30;66.70
28763;DHT22;15918;51.270;6.522;2023-07-29T15:21:47;24.30;66.50
28763;DHT22;15918;51.270;6.522;2023-07-29T15:24:13;24.30;66.30
28763;DHT22;15918;51.270;6.522;2023-07-29T15:26:38;24.30;66.30
28763;DHT22;15918;51.270;6.522;2023-07-29T15:29:04;24.30;66.10
28763;DHT22;15918;51.270;6.522;2023-07-29T15:31:30;24.30;65.90
28763;DHT22;15918;51.270;6.522;2023-07-29T15:33:56;24.30;65.70
28763;DHT22;15918;51.270;6.522;2023-07-29T15:36:22;24.30;65.60